KLWC

Lawrence Municipal Airport

Lawrence, Kansas, USA
METAR KLWC 220452Z AUTO 30007KT 10SM FEW016 BKN065 19/18 A2982 RMK AO2 SLP091 T01890178
Observed Flight Rules
Jun-22 @ 04:52 UTC (53 minutes ago) Visual Flight Rules
Wind Visibility Clouds
300° at 7 knots 10 miles
  • Few at 1,600' AGL
  • Broken at 6,500' AGL
Temperatures Readings
Current 19°C / 66°F
Dewpoint 18°C / 64°F
Humidity 94%
Altimeter 29.82" Hg
Pressure 1009.1 hPa
Elevation 253
METAR KLWC 220452Z AUTO 30007KT 10SM FEW016 BKN065 19/18 A2982 RMK AO2 SLP091 T01890178
Observed Flight Rules
Jun-22 @ 04:52 UTC
(53 minutes ago)
VFR
Wind Visibility
300° at 7 knots 10 miles
Clouds
  • Few at 1,600' AGL
  • Broken at 6,500' AGL
Temperature Dewpoint
19°C / 66°F 18°C / 64°F
Humidity Altimeter Pressure
94% 29.82" Hg 1009.1 hPa